Time;durP1;ratioP1;P1;durP2;ratioP2;P2;SDS_P1;SDS_P2;PMS_P1;PMS_P2;Temp;Humidity;BMP_temperature;BMP_pressure;BME280_temperature;BME280_humidity;BME280_pressure;Samples;Min_cycle;Max_cycle;Signal;HPM_P1;HPM_P2
2023/05/25 00:00:09;;;;;;;25.53;19.80;;;;;;;14.47;100.00;100478.40;1443490;90;22350;-78
2023/05/25 00:02:38;;;;;;;31.57;20.97;;;;;;;14.47;100.00;100481.56;1445169;90;22139;-78
2023/05/25 00:05:07;;;;;;;30.47;21.90;;;;;;;14.42;100.00;100477.60;1442928;90;21481;-78
2023/05/25 00:07:34;;;;;;;27.33;21.67;;;;;;;14.40;100.00;100475.60;1439113;90;21400;-77
2023/05/25 00:10:00;;;;;;;28.87;22.00;;;;;;;14.31;100.00;100480.63;1437073;90;21429;-78
2023/05/25 00:12:26;;;;;;;32.17;21.53;;;;;;;14.31;100.00;100479.30;1442083;90;21520;-78
2023/05/25 00:14:52;;;;;;;33.37;22.77;;;;;;;14.31;100.00;100479.80;1448385;90;22930;-78
2023/05/25 00:17:20;;;;;;;26.67;21.90;;;;;;;14.31;100.00;100477.97;1433754;90;21632;-78
2023/05/25 00:19:47;;;;;;;28.20;21.63;;;;;;;14.30;100.00;100481.64;1449454;90;21459;-78
2023/05/25 00:22:14;;;;;;;34.33;22.70;;;;;;;14.29;100.00;100475.97;1444365;90;21511;-78
2023/05/25 00:24:40;;;;;;;30.97;22.37;;;;;;;14.27;100.00;100477.98;1441646;90;21460;-79
2023/05/25 00:27:06;;;;;;;24.90;21.27;;;;;;;14.24;100.00;100478.30;1440305;90;21415;-78
2023/05/25 00:29:34;;;;;;;26.63;20.73;;;;;;;14.20;100.00;100476.99;1436331;90;21591;-78
2023/05/25 00:32:01;;;;;;;27.30;20.60;;;;;;;14.16;100.00;100477.02;1445059;90;21371;-79
2023/05/25 00:34:28;;;;;;;30.03;22.67;;;;;;;14.15;100.00;100468.68;1443324;90;21781;-78
2023/05/25 00:36:54;;;;;;;27.10;21.87;;;;;;;14.16;100.00;100474.35;1442705;90;21555;-78
2023/05/25 00:39:21;;;;;;;33.67;21.60;;;;;;;14.09;100.00;100476.02;1433709;90;22294;-79
2023/05/25 00:41:48;;;;;;;26.80;20.73;;;;;;;14.06;100.00;100477.69;1438948;90;21488;-77
2023/05/25 00:44:20;;;;;;;27.03;21.00;;;;;;;14.04;100.00;100477.87;1438394;90;21496;-78
2023/05/25 00:46:48;;;;;;;26.67;22.50;;;;;;;14.04;100.00;100475.20;1440535;90;22353;-78
2023/05/25 00:49:17;;;;;;;33.60;22.07;;;;;;;13.95;100.00;100470.87;1420470;90;21510;-79
2023/05/25 00:51:45;;;;;;;25.13;19.83;;;;;;;13.95;100.00;100468.21;1442158;90;21525;-78
2023/05/25 00:54:16;;;;;;;29.23;21.50;;;;;;;13.93;100.00;100469.73;1439254;90;21415;-79
2023/05/25 00:56:51;;;;;;;;;;;;;;;13.98;100.00;100470.53;1444370;90;21370;-78
2023/05/25 00:59:40;;;;;;;31.43;20.27;;;;;;;13.94;100.00;100463.91;1445375;90;20255;-78
2023/05/25 01:02:12;;;;;;;26.37;19.93;;;;;;;13.92;100.00;100468.05;1439988;90;21407;-79
2023/05/25 01:04:46;;;;;;;31.63;20.97;;;;;;;13.95;100.00;100470.40;1443054;90;21423;-79
2023/05/25 01:07:24;;;;;;;32.17;20.13;;;;;;;13.96;100.00;100472.05;1439142;90;22256;-79
2023/05/25 01:09:55;;;;;;;29.83;22.40;;;;;;;13.96;100.00;100475.22;1440726;90;22548;-79
2023/05/25 01:12:23;;;;;;;42.73;23.10;;;;;;;13.94;100.00;100475.37;1445987;90;22954;-78
2023/05/25 01:14:49;;;;;;;28.03;21.80;;;;;;;13.90;100.00;100471.39;1437348;90;21370;-79
2023/05/25 01:17:19;;;;;;;26.67;20.90;;;;;;;13.91;100.00;100477.03;1439656;90;22585;-79
2023/05/25 01:19:46;;;;;;;29.20;22.33;;;;;;;13.87;100.00;100480.22;1439230;90;21407;-78
2023/05/25 01:22:37;;;;;;;26.50;21.03;;;;;;;13.85;100.00;100476.38;1446575;90;21414;-78
2023/05/25 01:25:08;;;;;;;29.00;22.40;;;;;;;13.84;100.00;100473.72;1447601;90;22441;-78
2023/05/25 01:27:42;;;;;;;29.13;22.23;;;;;;;13.85;100.00;100473.72;1443269;90;21489;-78
2023/05/25 01:30:13;;;;;;;27.57;21.27;;;;;;;13.88;100.00;100474.72;1434717;90;21436;-78
2023/05/25 01:32:41;;;;;;;;;;;;;;;13.86;100.00;100478.03;1439053;90;21496;-79
2023/05/25 01:35:09;;;;;;;28.03;20.50;;;;;;;13.86;100.00;100491.33;1435545;90;20256;-78
2023/05/25 01:37:36;;;;;;;27.63;21.70;;;;;;;13.86;100.00;100487.34;1446144;90;21415;-78
2023/05/25 01:40:04;;;;;;;31.53;21.57;;;;;;;13.91;100.00;100489.01;1443097;90;21459;-79
2023/05/25 01:42:31;;;;;;;30.07;22.90;;;;;;;13.89;100.00;100487.00;1450008;90;21507;-79
2023/05/25 01:44:58;;;;;;;29.37;21.73;;;;;;;13.87;100.00;100487.70;1441765;90;21732;-79
2023/05/25 01:47:33;;;;;;;30.17;23.07;;;;;;;13.82;100.00;100482.55;1435826;90;21429;-79
2023/05/25 01:50:11;;;;;;;26.67;20.90;;;;;;;13.83;100.00;100487.68;1432899;90;21967;-79
2023/05/25 01:53:01;;;;;;;32.10;22.00;;;;;;;13.83;100.00;100488.19;1442024;90;21363;-79
2023/05/25 01:55:30;;;;;;;23.30;19.73;;;;;;;13.80;100.00;100489.34;1438675;90;21638;-78
2023/05/25 01:57:59;;;;;;;33.33;23.30;;;;;;;13.81;100.00;100484.37;1444551;90;21481;-79
2023/05/25 02:00:32;;;;;;;34.97;23.20;;;;;;;13.82;100.00;100487.36;1438068;90;21485;-80
2023/05/25 02:03:00;;;;;;;28.40;20.83;;;;;;;13.85;100.00;100486.20;1442682;90;21400;-81
2023/05/25 02:05:26;;;;;;;34.73;24.50;;;;;;;13.85;100.00;100487.02;1436122;90;22176;-80
2023/05/25 02:07:53;;;;;;;30.70;23.17;;;;;;;13.86;100.00;100493.99;1441812;90;21536;-80
2023/05/25 02:10:20;;;;;;;35.43;22.50;;;;;;;13.84;100.00;100495.16;1433203;90;21444;-81
2023/05/25 02:12:46;;;;;;;31.20;23.70;;;;;;;13.80;100.00;100496.50;1438197;90;21414;-80
2023/05/25 02:15:12;;;;;;;32.80;22.23;;;;;;;13.80;100.00;100492.52;1438035;90;21371;-79
2023/05/25 02:17:38;;;;;;;31.17;22.97;;;;;;;13.79;100.00;100493.52;1438148;90;21393;-79
2023/05/25 02:20:07;;;;;;;28.33;21.40;;;;;;;13.79;100.00;100492.19;1439499;90;21555;-79
2023/05/25 02:22:33;;;;;;;32.40;23.30;;;;;;;13.78;100.00;100496.66;1445077;90;21370;-79
2023/05/25 02:25:00;;;;;;;26.90;21.70;;;;;;;13.77;100.00;100496.33;1441792;90;22287;-77
2023/05/25 02:27:26;;;;;;;31.07;23.37;;;;;;;13.77;100.00;100501.66;1444386;90;21481;-77
2023/05/25 02:29:52;;;;;;;26.97;21.50;;;;;;;13.81;100.00;100499.01;1447452;90;21385;-77
2023/05/25 02:32:18;;;;;;;27.70;21.90;;;;;;;13.77;100.00;100500.32;1441239;90;22199;-79
2023/05/25 02:34:45;;;;;;;29.17;22.90;;;;;;;13.75;100.00;100500.50;1444983;90;21599;-79
2023/05/25 02:37:12;;;;;;;29.13;22.70;;;;;;;13.77;100.00;100506.47;1437919;90;21399;-79
2023/05/25 02:39:38;;;;;;;33.20;22.93;;;;;;;13.75;100.00;100498.31;1444881;90;21518;-80
2023/05/25 02:42:05;;;;;;;32.43;23.63;;;;;;;13.75;100.00;100496.98;1438584;90;21423;-79
2023/05/25 02:44:31;;;;;;;30.57;21.40;;;;;;;13.77;100.00;100494.50;1436246;90;21355;-80
2023/05/25 02:46:57;;;;;;;35.93;22.60;;;;;;;13.79;100.00;100494.34;1433345;90;21385;-80
2023/05/25 02:49:24;;;;;;;32.20;23.67;;;;;;;13.79;100.00;100497.52;1444388;90;21430;-79
2023/05/25 02:51:50;;;;;;;25.00;19.90;;;;;;;13.80;100.00;100505.30;1438727;90;21305;-79
2023/05/25 02:54:17;;;;;;;30.97;24.87;;;;;;;13.81;100.00;100510.98;1425903;90;22368;-79
2023/05/25 02:56:43;;;;;;;31.13;22.97;;;;;;;13.80;100.00;100514.62;1440224;90;21584;-79
2023/05/25 02:59:09;;;;;;;33.03;23.47;;;;;;;13.79;100.00;100510.30;1435286;90;21333;-78
2023/05/25 03:01:35;;;;;;;27.77;22.17;;;;;;;13.83;100.00;100512.95;1442616;90;21481;-78
2023/05/25 03:04:02;;;;;;;33.93;23.13;;;;;;;13.85;100.00;100520.28;1427369;90;21415;-78
2023/05/25 03:06:28;;;;;;;31.77;24.07;;;;;;;13.82;100.00;100516.62;1445373;90;21480;-78
2023/05/25 03:08:54;;;;;;;33.27;23.17;;;;;;;13.82;100.00;100507.31;1424122;90;21421;-78
2023/05/25 03:11:21;;;;;;;34.13;23.80;;;;;;;13.85;100.00;100509.64;1449169;90;22257;-78
2023/05/25 03:13:47;;;;;;;28.10;23.17;;;;;;;13.84;100.00;100506.66;1441439;90;21533;-79
2023/05/25 03:16:13;;;;;;;32.43;23.60;;;;;;;13.87;100.00;100511.64;1430266;90;21377;-78
2023/05/25 03:18:40;;;;;;;37.80;22.63;;;;;;;13.88;100.00;100512.47;1443098;90;21318;-78
2023/05/25 03:21:06;;;;;;;33.53;20.50;;;;;;;13.88;100.00;100505.31;1443951;90;22362;-78
2023/05/25 03:23:32;;;;;;;29.27;21.43;;;;;;;13.90;100.00;100509.97;1442467;90;21400;-77
2023/05/25 03:25:59;;;;;;;31.80;23.17;;;;;;;13.90;100.00;100506.48;1439089;90;21564;-78
2023/05/25 03:28:25;;;;;;;31.37;21.90;;;;;;;13.93;100.00;100508.30;1443187;90;21529;-77
2023/05/25 03:30:51;;;;;;;31.70;21.77;;;;;;;13.97;100.00;100520.77;1440630;90;21496;-78
2023/05/25 03:33:17;;;;;;;32.43;22.70;;;;;;;13.99;100.00;100518.27;1438117;90;21481;-78
2023/05/25 03:35:44;;;;;;;31.00;23.23;;;;;;;14.01;100.00;100519.42;1441802;90;21477;-78
2023/05/25 03:38:11;;;;;;;27.63;22.40;;;;;;;14.03;100.00;100515.28;1438500;90;21399;-79
2023/05/25 03:40:37;;;;;;;33.73;23.00;;;;;;;14.00;100.00;100522.59;1438226;90;21349;-80
2023/05/25 03:43:03;;;;;;;28.10;21.63;;;;;;;13.98;100.00;100520.62;1452595;90;21326;-79
2023/05/25 03:45:29;;;;;;;29.17;22.07;;;;;;;14.02;100.00;100526.93;1441218;90;22376;-80
2023/05/25 03:47:56;;;;;;;28.00;21.03;;;;;;;14.05;100.00;100523.94;1438499;90;21452;-81
2023/05/25 03:50:22;;;;;;;30.60;19.50;;;;;;;14.09;100.00;100530.57;1441250;90;21414;-79
2023/05/25 03:52:48;;;;;;;28.23;19.20;;;;;;;14.12;100.00;100532.89;1438462;90;21348;-78
2023/05/25 03:55:15;;;;;;;27.43;21.40;;;;;;;14.16;100.00;100532.91;1441470;90;21573;-78
2023/05/25 03:57:41;;;;;;;28.17;20.50;;;;;;;14.20;100.00;100534.22;1450044;90;21622;-77
2023/05/25 04:00:09;;;;;;;27.97;20.20;;;;;;;14.23;100.00;100531.22;1444421;90;21392;-79
2023/05/25 04:02:36;;;;;;;28.83;21.90;;;;;;;14.25;100.00;100526.56;1439294;90;21525;-79
2023/05/25 04:05:03;;;;;;;27.20;20.27;;;;;;;14.27;100.00;100532.56;1440332;90;21547;-79
2023/05/25 04:07:30;;;;;;;29.30;21.40;;;;;;;14.28;100.00;100536.88;1438353;90;21378;-79
2023/05/25 04:09:59;;;;;;;27.57;20.77;;;;;;;14.27;100.00;100533.03;1439419;90;21562;-79
2023/05/25 04:12:26;;;;;;;29.63;20.77;;;;;;;14.27;100.00;100531.23;1431197;90;21636;-77
2023/05/25 04:14:53;;;;;;;30.13;20.37;;;;;;;14.27;100.00;100538.36;1446144;90;22243;-77
2023/05/25 04:17:23;;;;;;;29.23;19.83;;;;;;;14.23;100.00;100541.86;1442992;90;21533;-78
2023/05/25 04:19:47;;;;;;;28.13;20.00;;;;;;;14.27;100.00;100541.87;1442950;90;22401;-77
2023/05/25 04:22:14;;;;;;;28.90;19.87;;;;;;;14.28;100.00;100540.87;1443691;90;21326;-77
2023/05/25 04:24:40;;;;;;;26.60;19.20;;;;;;;14.29;100.00;100542.52;1435081;90;21392;-77
2023/05/25 04:27:07;;;;;;;26.03;19.93;;;;;;;14.34;100.00;100542.02;1439248;90;22443;-77
2023/05/25 04:29:33;;;;;;;28.27;20.43;;;;;;;14.36;100.00;100546.69;1426812;90;21511;-77
2023/05/25 04:31:59;;;;;;;26.40;19.93;;;;;;;14.36;100.00;100553.34;1436203;90;21448;-76
2023/05/25 04:34:26;;;;;;;31.23;20.03;;;;;;;14.41;100.00;100553.17;1442206;90;21473;-76
2023/05/25 04:36:52;;;;;;;28.20;19.80;;;;;;;14.42;100.00;100548.16;1438488;90;21511;-76
2023/05/25 04:39:18;;;;;;;28.97;19.53;;;;;;;14.48;100.00;100549.82;1421256;90;21296;-77
2023/05/25 04:41:45;;;;;;;28.83;19.63;;;;;;;14.54;100.00;100549.17;1440007;90;22177;-77
2023/05/25 04:44:12;;;;;;;27.47;18.37;;;;;;;14.64;100.00;100552.45;1441994;90;21576;-78
2023/05/25 04:46:39;;;;;;;38.87;21.00;;;;;;;14.75;100.00;100552.09;1434980;90;21333;-78
2023/05/25 04:49:07;;;;;;;31.27;19.73;;;;;;;14.88;100.00;100553.72;1441765;90;22272;-78
2023/05/25 04:51:34;;;;;;;23.20;18.57;;;;;;;15.03;100.00;100556.99;1440204;90;22055;-79
2023/05/25 04:54:00;;;;;;;24.20;18.00;;;;;;;15.19;100.00;100553.41;1440258;90;21385;-79
2023/05/25 04:56:27;;;;;;;28.30;19.43;;;;;;;15.28;99.71;100557.71;1439557;90;21496;-78
2023/05/25 04:58:53;;;;;;;21.47;18.63;;;;;;;15.40;100.00;100550.97;1448888;90;21467;-78
2023/05/25 05:01:19;;;;;;;27.93;18.87;;;;;;;15.52;99.35;100550.88;1441597;90;21547;-78
2023/05/25 05:03:45;;;;;;;26.33;20.30;;;;;;;15.61;98.32;100558.33;1442126;90;21407;-78
2023/05/25 05:06:11;;;;;;;22.23;17.43;;;;;;;15.56;97.16;100559.35;1439884;90;21675;-78
2023/05/25 05:08:38;;;;;;;25.73;17.90;;;;;;;15.65;96.81;100560.13;1432590;90;21356;-79
2023/05/25 05:11:04;;;;;;;23.43;18.93;;;;;;;15.66;96.23;100562.63;1442287;90;21393;-79
2023/05/25 05:13:30;;;;;;;29.13;21.23;;;;;;;15.70;96.20;100566.63;1435727;90;21444;-79
2023/05/25 05:15:57;;;;;;;46.27;20.87;;;;;;;15.74;96.19;100559.12;1443347;90;21430;-79
2023/05/25 05:18:23;;;;;;;27.27;19.17;;;;;;;15.84;96.15;100564.20;1436151;90;21334;-79
2023/05/25 05:20:49;;;;;;;29.23;19.63;;;;;;;15.93;95.99;100571.13;1438119;90;21470;-78
2023/05/25 05:23:15;;;;;;;29.60;20.80;;;;;;;16.00;95.11;100571.58;1442172;90;21469;-78
2023/05/25 05:25:41;;;;;;;27.23;21.30;;;;;;;16.13;95.09;100569.63;1439053;90;21297;-78
2023/05/25 05:28:07;;;;;;;24.23;18.93;;;;;;;16.23;94.42;100574.22;1439063;90;21486;-77
2023/05/25 05:30:33;;;;;;;25.90;20.10;;;;;;;16.32;93.92;100578.16;1438069;90;21422;-77
2023/05/25 05:33:00;;;;;;;26.80;19.13;;;;;;;16.42;93.83;100578.70;1431849;90;21391;-77
2023/05/25 05:35:27;;;;;;;26.90;18.13;;;;;;;16.38;92.19;100577.42;1437766;90;22280;-78
2023/05/25 05:37:53;;;;;;;27.07;18.40;;;;;;;16.38;91.56;100574.76;1436750;90;21555;-79
2023/05/25 05:40:19;;;;;;;29.57;19.53;;;;;;;16.46;91.86;100576.02;1443052;90;21334;-79
2023/05/25 05:42:45;;;;;;;23.13;18.63;;;;;;;16.55;92.25;100584.27;1444270;90;21370;-78
2023/05/25 05:45:11;;;;;;;26.30;19.83;;;;;;;16.63;91.46;100580.66;1438496;90;21333;-78
2023/05/25 05:47:37;;;;;;;24.00;17.40;;;;;;;16.74;91.94;100584.72;1429234;90;22412;-78
2023/05/25 05:50:05;;;;;;;27.37;18.33;;;;;;;16.78;89.99;100587.41;1440495;90;21562;-80
2023/05/25 05:52:32;;;;;;;28.70;18.70;;;;;;;16.94;90.54;100583.19;1439369;90;21386;-84
2023/05/25 05:58:59;;;;;;;29.37;18.10;;;;;;;17.21;89.73;100586.22;1437260;90;21467;-84
2023/05/25 06:01:25;;;;;;;23.50;17.37;;;;;;;17.44;89.46;100584.23;1440458;90;22206;-84
2023/05/25 06:03:53;;;;;;;21.47;16.30;;;;;;;17.51;87.37;100587.79;1434420;90;21482;-86
2023/05/25 06:06:19;;;;;;;22.17;15.93;;;;;;;17.61;87.61;100592.86;1447669;90;22480;-85
2023/05/25 06:08:47;;;;;;;26.50;17.10;;;;;;;17.69;86.68;100589.21;1440192;90;21968;-85
2023/05/25 06:11:13;;;;;;;26.15;15.70;;;;;;;17.75;86.44;100591.12;1439722;90;21481;-86
2023/05/25 06:13:39;;;;;;;21.90;16.20;;;;;;;17.84;85.68;100596.73;1435949;90;22391;-81
2023/05/25 06:16:06;;;;;;;21.07;15.23;;;;;;;17.90;85.21;100599.97;1425074;90;21355;-84
2023/05/25 06:18:48;;;;;;;23.60;16.52;;;;;;;18.02;84.98;100597.61;1440875;90;21585;-84
2023/05/25 06:21:14;;;;;;;26.10;14.18;;;;;;;18.11;85.15;100593.77;1435656;90;21452;-84
2023/05/25 06:23:42;;;;;;;21.93;15.80;;;;;;;18.33;85.19;100588.40;1436818;90;21428;-85
2023/05/25 06:26:08;;;;;;;22.17;15.53;;;;;;;18.54;84.90;100591.53;1441127;90;21392;-85
2023/05/25 06:28:35;;;;;;;19.67;14.53;;;;;;;18.69;84.06;100590.90;1425240;90;21422;-86
2023/05/25 06:31:01;;;;;;;21.82;14.50;;;;;;;18.72;81.54;100595.87;1442535;90;22490;-86
2023/05/25 06:33:27;;;;;;;25.27;15.32;;;;;;;18.78;82.74;100600.47;1437619;90;22442;-85
2023/05/25 06:35:59;;;;;;;21.60;14.13;;;;;;;18.80;81.88;100599.77;1436786;90;21472;-85
2023/05/25 06:38:22;;;;;;;23.95;14.58;;;;;;;18.84;81.48;100595.66;1442135;90;22598;-88
2023/05/25 06:40:49;;;;;;;20.12;14.03;;;;;;;18.99;82.13;100601.41;1441128;90;21370;-84
2023/05/25 06:43:15;;;;;;;18.23;14.33;;;;;;;19.12;81.83;100590.75;1442143;90;21599;-84
2023/05/25 06:45:41;;;;;;;17.17;14.20;;;;;;;19.24;81.39;100597.71;1438081;90;22213;-86
2023/05/25 06:48:11;;;;;;;18.82;14.25;;;;;;;19.36;80.68;100592.92;1438927;90;21378;-87
2023/05/25 06:50:41;;;;;;;18.52;13.20;;;;;;;19.46;80.26;100595.22;1441105;90;21496;-85
2023/05/25 06:53:09;;;;;;;17.82;13.10;;;;;;;19.57;79.37;100594.63;1441132;90;21525;-84
2023/05/25 06:55:36;;;;;;;17.57;12.25;;;;;;;19.72;79.28;100599.04;1442623;90;22416;-83
2023/05/25 06:58:05;;;;;;;17.15;12.55;;;;;;;19.68;76.46;100597.28;1440638;90;21311;-81
2023/05/25 07:00:43;;;;;;;17.73;14.28;;;;;;;19.63;76.56;100599.70;1441150;90;21371;-83
2023/05/25 07:03:09;;;;;;;16.20;13.10;;;;;;;19.70;77.94;100601.09;1424212;90;21414;-83
2023/05/25 07:05:36;;;;;;;15.85;12.07;;;;;;;19.66;77.21;100606.05;1437380;90;21545;-83
2023/05/25 07:08:02;;;;;;;20.97;12.80;;;;;;;19.77;76.68;100601.42;1440886;90;21340;-82
2023/05/25 07:10:28;;;;;;;18.23;13.30;;;;;;;19.89;76.31;100603.52;1437747;90;21385;-83
2023/05/25 07:12:55;;;;;;;13.50;12.07;;;;;;;20.02;77.44;100599.48;1442494;90;21363;-83
2023/05/25 07:15:21;;;;;;;18.35;12.95;;;;;;;20.11;76.31;100609.02;1446006;90;21998;-82
2023/05/25 07:17:48;;;;;;;15.30;12.70;;;;;;;20.21;76.64;100604.05;1437591;90;21399;-84
2023/05/25 07:20:15;;;;;;;16.60;12.55;;;;;;;20.37;76.91;100608.69;1438320;90;21504;-80
2023/05/25 07:22:42;;;;;;;15.13;11.63;;;;;;;20.54;76.54;100605.91;1438646;90;21415;-80
2023/05/25 07:25:09;;;;;;;20.82;11.70;;;;;;;20.70;75.65;100609.52;1435902;90;22332;-80
2023/05/25 07:27:35;;;;;;;17.05;12.43;;;;;;;20.88;74.91;100610.72;1440090;90;21385;-81
2023/05/25 07:30:01;;;;;;;15.08;11.57;;;;;;;20.77;72.14;100610.84;1439283;90;22473;-81
2023/05/25 07:32:29;;;;;;;17.77;11.33;;;;;;;20.81;72.67;100616.64;1443250;90;21431;-83
2023/05/25 07:34:55;;;;;;;16.65;11.20;;;;;;;20.81;72.43;100616.64;1440986;90;22466;-83
2023/05/25 07:37:21;;;;;;;12.95;10.58;;;;;;;20.88;72.73;100621.48;1440887;90;21385;-82
2023/05/25 07:39:47;;;;;;;18.48;12.35;;;;;;;20.83;73.77;100606.48;1441612;90;21533;-83
2023/05/25 07:42:19;;;;;;;14.95;11.35;;;;;;;20.83;73.77;100606.48;1442094;90;21363;-84
2023/05/25 07:44:41;;;;;;;21.17;11.33;;;;;;;21.02;73.50;100616.37;1440053;90;21458;-84
2023/05/25 07:47:07;;;;;;;14.40;10.88;;;;;;;21.22;73.99;100618.17;1423166;90;21555;-83
2023/05/25 07:49:33;;;;;;;15.03;8.98;;;;;;;21.24;72.47;100619.61;1444917;90;22301;-84
2023/05/25 07:52:02;;;;;;;16.32;10.40;;;;;;;21.09;70.46;100614.99;1438845;90;22361;-83
2023/05/25 07:54:28;;;;;;;19.50;10.45;;;;;;;21.18;71.60;100618.60;1435626;90;21533;-80
2023/05/25 07:56:55;;;;;;;17.45;11.90;;;;;;;21.16;70.18;100609.91;1440357;90;21622;-83
2023/05/25 07:59:21;;;;;;;22.22;10.48;;;;;;;21.31;71.57;100612.85;1439488;90;21436;-83
2023/05/25 08:01:47;;;;;;;15.68;9.80;;;;;;;21.46;71.15;100608.56;1437046;90;21526;-83
2023/05/25 08:04:13;;;;;;;15.38;10.48;;;;;;;21.57;70.68;100619.48;1439377;90;22192;-83
2023/05/25 08:06:40;;;;;;;16.37;10.03;;;;;;;21.68;70.45;100619.85;1437866;90;21407;-84
2023/05/25 08:09:07;;;;;;;14.98;10.88;;;;;;;21.81;70.45;100619.78;1441718;90;21636;-84
2023/05/25 08:11:33;;;;;;;13.08;9.30;;;;;;;21.92;69.73;100616.37;1440826;90;21704;-83
2023/05/25 08:13:59;;;;;;;12.65;9.25;;;;;;;21.83;67.09;100619.84;1443247;90;21326;-84
2023/05/25 08:16:25;;;;;;;15.55;8.65;;;;;;;21.88;68.04;100616.52;1445704;90;21400;-83
2023/05/25 08:18:51;;;;;;;19.23;9.73;;;;;;;21.90;66.83;100619.83;1443029;90;21341;-82
2023/05/25 08:21:18;;;;;;;13.43;9.93;;;;;;;22.05;67.60;100616.28;1440661;90;21319;-84
2023/05/25 08:23:44;;;;;;;12.35;9.83;;;;;;;22.25;68.91;100615.34;1446052;90;21496;-85
2023/05/25 08:26:11;;;;;;;15.48;9.58;;;;;;;22.42;68.07;100620.48;1440080;90;21393;-84
2023/05/25 08:28:37;;;;;;;14.85;8.58;;;;;;;22.59;67.77;100619.94;1435115;90;22472;-84
2023/05/25 08:31:04;;;;;;;13.55;8.63;;;;;;;22.68;66.19;100615.89;1441989;90;21370;-84
2023/05/25 08:33:30;;;;;;;12.35;9.08;;;;;;;22.85;66.43;100612.91;1438999;90;21311;-83
2023/05/25 08:35:58;;;;;;;18.80;9.38;;;;;;;22.93;65.90;100618.02;1439833;90;21444;-84
2023/05/25 08:38:24;;;;;;;10.13;8.60;;;;;;;22.99;64.86;100625.77;1433289;90;21362;-84
2023/05/25 08:41:04;;;;;;;15.35;7.72;;;;;;;23.10;64.91;100620.98;1435524;90;21459;-84
2023/05/25 08:43:32;;;;;;;10.68;6.97;;;;;;;23.23;64.07;100628.08;1444476;90;21430;-84
2023/05/25 08:46:07;;;;;;;11.38;8.70;;;;;;;23.32;63.43;100624.02;1450629;90;21606;-86
2023/05/25 08:48:36;;;;;;;11.35;8.08;;;;;;;23.26;62.63;100627.63;1439293;90;21363;-85
2023/05/25 08:51:12;;;;;;;14.00;7.80;;;;;;;23.38;63.64;100627.16;1446288;90;21576;-83
2023/05/25 08:53:40;;;;;;;9.15;8.18;;;;;;;23.38;62.92;100621.75;1439670;90;22167;-85
2023/05/25 08:56:19;;;;;;;12.20;8.45;;;;;;;23.28;63.17;100618.78;1438234;90;21452;-82
2023/05/25 08:59:06;;;;;;;10.85;7.95;;;;;;;23.08;63.97;100624.95;1440784;90;22288;-83
2023/05/25 09:01:37;;;;;;;13.35;7.15;;;;;;;23.07;63.81;100625.98;1434963;90;21458;-83
2023/05/25 09:04:04;;;;;;;8.83;7.30;;;;;;;23.20;64.33;100628.53;1442465;90;21474;-83
2023/05/25 09:06:32;;;;;;;13.80;7.97;;;;;;;23.13;63.08;100630.47;1440154;90;22273;-84
2023/05/25 09:08:58;;;;;;;9.18;7.42;;;;;;;23.28;64.07;100629.59;1442215;90;22295;-84
2023/05/25 09:11:26;;;;;;;12.35;7.03;;;;;;;23.29;63.63;100620.42;1427994;90;21384;-83
2023/05/25 09:13:53;;;;;;;12.30;6.87;;;;;;;23.22;62.77;100622.89;1423565;90;22375;-84
2023/05/25 09:16:21;;;;;;;10.15;7.35;;;;;;;23.38;63.56;100627.16;1443218;90;21378;-85
2023/05/25 09:18:49;;;;;;;9.18;7.50;;;;;;;23.57;63.26;100631.20;1439547;90;21600;-83
2023/05/25 09:21:15;;;;;;;8.58;6.95;;;;;;;23.80;63.27;100627.26;1440640;90;21871;-86
2023/05/25 09:23:41;;;;;;;12.90;7.78;;;;;;;23.98;61.89;100620.95;1422845;90;22328;-85
2023/05/25 09:26:07;;;;;;;10.55;6.95;;;;;;;24.13;61.84;100624.56;1439971;90;21400;-84
2023/05/25 09:28:34;;;;;;;14.85;7.30;;;;;;;24.03;60.54;100618.92;1442613;90;22235;-85
2023/05/25 09:31:00;;;;;;;11.03;7.62;;;;;;;24.13;61.40;100620.52;1425948;90;21686;-84
2023/05/25 09:33:27;;;;;;;9.70;7.03;;;;;;;24.24;60.98;100618.36;1433284;90;22258;-85
2023/05/25 09:35:54;;;;;;;7.25;6.53;;;;;;;24.25;60.49;100617.29;1436803;90;21400;-86
2023/05/25 09:38:21;;;;;;;10.40;6.42;;;;;;;24.05;58.10;100619.48;1439404;90;21334;-84
2023/05/25 09:40:47;;;;;;;10.53;6.22;;;;;;;24.10;58.98;100615.57;1438847;90;22472;-85
2023/05/25 09:43:13;;;;;;;8.18;5.60;;;;;;;24.12;60.40;100620.23;1447277;90;21407;-84
2023/05/25 09:45:39;;;;;;;8.13;5.60;;;;;;;24.25;58.99;100619.99;1440506;90;21466;-85
2023/05/25 09:48:06;;;;;;;9.35;5.92;;;;;;;24.08;58.51;100626.63;1445331;90;21541;-84
2023/05/25 09:50:34;;;;;;;8.03;5.65;;;;;;;24.15;56.87;100630.58;1443125;90;21510;-85
2023/05/25 09:53:02;;;;;;;11.73;6.60;;;;;;;24.25;56.65;100636.22;1433891;90;21437;-85
2023/05/25 09:55:29;;;;;;;14.53;6.37;;;;;;;24.35;58.32;100629.44;1442571;90;21363;-83
2023/05/25 09:57:56;;;;;;;14.00;6.87;;;;;;;24.41;58.07;100629.84;1446564;90;21385;-85
2023/05/25 10:00:23;;;;;;;7.67;5.85;;;;;;;24.60;59.20;100630.08;1442252;90;22346;-85
2023/05/25 10:02:51;;;;;;;7.85;5.85;;;;;;;24.76;58.58;100630.69;1437548;90;21585;-85
2023/05/25 10:05:18;;;;;;;10.55;6.53;;;;;;;24.84;57.66;100635.47;1442841;90;21430;-85
2023/05/25 10:07:45;;;;;;;7.22;6.37;;;;;;;24.76;57.09;100633.94;1443104;90;22079;-85
2023/05/25 10:10:15;;;;;;;10.25;6.53;;;;;;;24.97;57.51;100628.43;1442907;90;21400;-85
2023/05/25 10:12:43;;;;;;;9.98;5.45;;;;;;;24.96;57.07;100623.55;1446185;90;21378;-85
2023/05/25 10:15:13;;;;;;;7.78;5.90;;;;;;;25.04;56.93;100627.78;1435900;90;21415;-84
2023/05/25 10:17:45;;;;;;;;;;;;;;;25.03;54.87;100628.01;1442009;90;21453;-84
2023/05/25 10:20:14;;;;;;;11.50;6.25;;;;;;;25.02;56.08;100620.95;1442231;90;20858;-85
2023/05/25 10:22:46;;;;;;;7.92;7.00;;;;;;;25.04;56.74;100616.95;1434131;90;21990;-84
2023/05/25 10:25:37;;;;;;;8.25;5.55;;;;;;;25.10;55.06;100618.70;1435942;90;21606;-85
2023/05/25 10:28:20;;;;;;;9.63;5.50;;;;;;;25.38;57.49;100618.49;1440438;90;22404;-84
2023/05/25 10:30:49;;;;;;;10.23;5.50;;;;;;;25.70;55.53;100630.20;1439536;90;21480;-85
2023/05/25 10:33:17;;;;;;;8.10;5.43;;;;;;;25.78;54.92;100628.43;1442614;90;21326;-85
2023/05/25 10:35:44;;;;;;;7.97;5.30;;;;;;;25.91;52.79;100623.28;1435262;90;22465;-85
2023/05/25 10:38:12;;;;;;;7.15;5.78;;;;;;;25.66;52.56;100619.84;1439334;90;22331;-85
2023/05/25 10:40:38;;;;;;;8.20;5.33;;;;;;;25.52;53.35;100613.08;1439172;90;21511;-84
2023/05/25 10:43:05;;;;;;;13.40;5.83;;;;;;;25.52;53.66;100613.08;1443160;90;22405;-84
2023/05/25 10:45:33;;;;;;;12.18;5.75;;;;;;;25.38;53.27;100607.12;1440635;90;21959;-85
2023/05/25 10:47:59;;;;;;;10.03;6.03;;;;;;;25.63;54.27;100605.40;1427900;90;21348;-85
2023/05/25 10:50:27;;;;;;;14.13;6.10;;;;;;;25.82;53.02;100605.20;1440850;90;21539;-85
2023/05/25 10:53:07;;;;;;;9.25;5.17;;;;;;;25.82;50.78;100600.63;1437988;90;21504;-85
2023/05/25 10:56:02;;;;;;;9.03;5.15;;;;;;;25.84;50.24;100602.58;1442186;90;22443;-84
2023/05/25 10:58:30;;;;;;;9.70;5.72;;;;;;;25.84;50.47;100595.80;1435125;90;21465;-85
2023/05/25 11:01:12;;;;;;;10.48;5.50;;;;;;;25.92;50.87;100595.09;1437444;90;21319;-85
2023/05/25 11:03:58;;;;;;;7.92;5.80;;;;;;;26.09;51.13;100593.21;1432909;90;21713;-85
2023/05/25 11:06:45;;;;;;;10.65;5.30;;;;;;;26.04;48.96;100585.84;1435926;90;21496;-86
2023/05/25 11:09:27;;;;;;;5.58;4.62;;;;;;;26.22;49.06;100583.94;1437369;90;21341;-85
2023/05/25 11:12:01;;;;;;;6.65;4.25;;;;;;;26.33;47.01;100583.03;1442085;90;21444;-86
2023/05/25 11:14:35;;;;;;;6.75;5.25;;;;;;;26.31;47.54;100582.45;1430360;90;22287;-86
2023/05/25 11:17:16;;;;;;;8.28;4.62;;;;;;;26.46;46.44;100584.02;1444646;90;21385;-86